createdAt,value
2023-04-08T00:01:02.865Z,99782.98
2023-04-08T00:03:32.579Z,99778.43
2023-04-08T00:06:02.857Z,99777.04
2023-04-08T00:08:31.850Z,99779.23
2023-04-08T00:10:59.821Z,99776.80
2023-04-08T00:13:31.196Z,99784.64
2023-04-08T00:15:59.673Z,99787.13
2023-04-08T00:18:28.098Z,99788.73
2023-04-08T00:20:57.416Z,99791.77
2023-04-08T00:23:25.827Z,99793.39
2023-04-08T00:25:54.103Z,99791.55
2023-04-08T00:28:22.707Z,99794.09
2023-04-08T00:30:51.912Z,99796.33
2023-04-08T00:33:20.197Z,99797.10
2023-04-08T00:35:48.641Z,99796.74
2023-04-08T00:38:16.884Z,99794.05
2023-04-08T00:40:46.006Z,99794.46
2023-04-08T00:43:16.606Z,99793.04
2023-04-08T00:45:48.900Z,99794.48
2023-04-08T00:48:18.750Z,99795.41
2023-04-08T00:50:47.399Z,99797.19
2023-04-08T00:53:35.409Z,99792.02
2023-04-08T00:56:03.688Z,99793.90
2023-04-08T00:58:31.749Z,99790.75
2023-04-08T01:01:13.731Z,99789.17
2023-04-08T01:04:20.697Z,99786.99
2023-04-08T01:06:51.645Z,99786.39
2023-04-08T01:09:24.258Z,99789.69
2023-04-08T01:11:54.665Z,99790.29
2023-04-08T01:14:24.903Z,99789.36
2023-04-08T01:16:56.505Z,99789.45
2023-04-08T01:19:32.311Z,99788.39
2023-04-08T01:22:04.612Z,99785.52
2023-04-08T01:24:36.202Z,99788.40
2023-04-08T01:27:04.379Z,99785.02
2023-04-08T01:29:34.192Z,99787.04
2023-04-08T01:32:02.332Z,99788.09
2023-04-08T01:34:31.687Z,99787.33
2023-04-08T01:36:59.727Z,99787.75
2023-04-08T01:39:27.791Z,99786.11
2023-04-08T01:41:56.048Z,99791.52
2023-04-08T01:44:26.706Z,99788.34
2023-04-08T01:46:54.891Z,99789.24
2023-04-08T01:49:23.892Z,99788.33
2023-04-08T01:51:52.096Z,99788.57
2023-04-08T01:54:20.800Z,99789.45
2023-04-08T01:56:48.874Z,99789.41
2023-04-08T01:59:16.988Z,99786.67
2023-04-08T02:01:45.720Z,99785.89
2023-04-08T02:04:14.574Z,99785.41
2023-04-08T02:06:42.934Z,99786.95
2023-04-08T02:09:11.290Z,99787.75
2023-04-08T02:11:40.888Z,99785.79
2023-04-08T02:14:08.919Z,99785.23
2023-04-08T02:16:42.758Z,99783.42
2023-04-08T02:19:30.897Z,99783.30
2023-04-08T02:22:06.922Z,99779.77
2023-04-08T02:24:35.673Z,99771.64
2023-04-08T02:27:04.270Z,99767.45
2023-04-08T02:29:32.590Z,99769.06
2023-04-08T02:32:01.809Z,99767.63
2023-04-08T02:34:30.460Z,99766.53
2023-04-08T02:36:58.973Z,99767.03
2023-04-08T02:39:33.795Z,99770.77
2023-04-08T02:42:02.334Z,99776.98
2023-04-08T02:44:30.481Z,99777.57
2023-04-08T02:47:01.697Z,99783.19
2023-04-08T02:49:29.987Z,99778.80
2023-04-08T02:52:05.959Z,99784.45
2023-04-08T02:54:36.987Z,99789.27
2023-04-08T02:57:05.404Z,99793.35
2023-04-08T02:59:41.071Z,99793.59
2023-04-08T03:02:09.323Z,99787.96
2023-04-08T03:04:37.634Z,99784.84
2023-04-08T03:07:08.544Z,99787.90
2023-04-08T03:09:44.512Z,99787.31
2023-04-08T03:12:13.574Z,99782.21
2023-04-08T03:14:42.774Z,99784.71
2023-04-08T03:17:14.464Z,99789.38
2023-04-08T03:19:42.441Z,99788.05
2023-04-08T03:22:10.387Z,99788.89
2023-04-08T03:24:39.126Z,99787.31
2023-04-08T03:27:08.411Z,99786.01
2023-04-08T03:29:36.477Z,99788.48
2023-04-08T03:32:04.901Z,99791.80
2023-04-08T03:34:34.614Z,99791.02
2023-04-08T03:37:02.641Z,99793.17
2023-04-08T03:39:31.366Z,99792.48
2023-04-08T03:42:01.142Z,99793.11
2023-04-08T03:44:29.369Z,99796.15
2023-04-08T03:46:57.571Z,99797.80
2023-04-08T03:49:26.274Z,99799.59
2023-04-08T03:51:54.265Z,99801.95
2023-04-08T03:54:22.538Z,99804.18
2023-04-08T03:56:50.823Z,99811.67
2023-04-08T03:59:18.887Z,99814.92
2023-04-08T04:01:47.721Z,99809.43
2023-04-08T04:04:16.478Z,99806.26
2023-04-08T04:06:45.568Z,99808.64
2023-04-08T04:09:15.374Z,99809.42
2023-04-08T04:11:43.314Z,99806.35
2023-04-08T04:14:12.320Z,99806.87
2023-04-08T04:16:40.745Z,99808.38
2023-04-08T04:19:09.860Z,99807.33
2023-04-08T04:21:37.897Z,99807.70
2023-04-08T04:24:06.241Z,99811.91
2023-04-08T04:26:34.435Z,99815.63
2023-04-08T04:29:02.523Z,99815.41
2023-04-08T04:31:31.218Z,99815.47
2023-04-08T04:34:00.956Z,99814.13
2023-04-08T04:36:29.114Z,99812.25
2023-04-08T04:39:01.502Z,99813.42
2023-04-08T04:41:29.777Z,99819.52
2023-04-08T04:43:57.794Z,99823.22
2023-04-08T04:46:32.711Z,99830.77
2023-04-08T04:49:02.853Z,99831.83
2023-04-08T04:51:33.746Z,99830.50
2023-04-08T04:54:02.687Z,99835.25
2023-04-08T04:56:31.601Z,99838.86
2023-04-08T04:59:06.125Z,99835.67
2023-04-08T05:01:36.063Z,99836.27
2023-04-08T05:04:04.165Z,99844.33
2023-04-08T05:06:32.289Z,99845.71
2023-04-08T05:09:01.714Z,99845.81
2023-04-08T05:11:29.776Z,99845.88
2023-04-08T05:14:05.412Z,99845.95
2023-04-08T05:16:39.465Z,99846.63
2023-04-08T05:19:07.538Z,99844.22
2023-04-08T05:21:39.553Z,99843.33
2023-04-08T05:24:08.644Z,99847.36
2023-04-08T05:26:37.893Z,99848.92
2023-04-08T05:29:08.047Z,99846.61
2023-04-08T05:31:36.897Z,99848.83
2023-04-08T05:34:04.986Z,99850.27
2023-04-08T05:36:35.520Z,99855.75
2023-04-08T05:39:08.416Z,99854.94
2023-04-08T05:41:37.601Z,99861.14
2023-04-08T05:44:05.716Z,99858.30
2023-04-08T05:46:34.255Z,99856.78
2023-04-08T05:49:02.272Z,99852.92
2023-04-08T05:51:30.915Z,99853.30
2023-04-08T05:53:58.871Z,99850.41
2023-04-08T05:56:32.379Z,99849.97
2023-04-08T05:59:01.622Z,99852.25
2023-04-08T06:01:29.986Z,99851.63
2023-04-08T06:04:00.887Z,99847.81
2023-04-08T06:06:29.309Z,99846.17
2023-04-08T06:08:57.206Z,99855.90
2023-04-08T06:11:25.522Z,99859.99
2023-04-08T06:13:54.666Z,99859.88
2023-04-08T06:16:23.152Z,99859.23
2023-04-08T06:18:55.868Z,99855.03
2023-04-08T06:21:24.051Z,99859.27
2023-04-08T06:23:52.064Z,99859.81
2023-04-08T06:26:21.875Z,99862.35
2023-04-08T06:28:50.087Z,99860.35
2023-04-08T06:31:18.078Z,99861.08
2023-04-08T06:33:50.439Z,99863.64
2023-04-08T06:36:18.422Z,99865.20
2023-04-08T06:38:47.903Z,99867.75
2023-04-08T06:41:15.985Z,99867.35
2023-04-08T06:43:45.745Z,99867.95
2023-04-08T06:46:13.676Z,99870.52
2023-04-08T06:48:41.993Z,99875.59
2023-04-08T06:51:09.986Z,99871.59
2023-04-08T06:53:38.281Z,99873.38
2023-04-08T06:58:35.970Z,99877.30
2023-04-08T07:01:05.066Z,99877.88
2023-04-08T07:03:34.325Z,99880.98
2023-04-08T07:06:04.532Z,99883.17
2023-04-08T07:08:32.674Z,99883.50
2023-04-08T07:11:01.071Z,99890.13
2023-04-08T07:13:30.891Z,99889.96
2023-04-08T07:15:58.859Z,99889.14
2023-04-08T07:18:29.210Z,99893.19
2023-04-08T07:20:58.004Z,99889.44
2023-04-08T07:23:28.215Z,99895.63
2023-04-08T07:25:56.164Z,99891.20
2023-04-08T07:28:26.153Z,99892.69
2023-04-08T07:30:54.295Z,99892.76
2023-04-08T07:33:23.957Z,99893.30
2023-04-08T07:35:52.636Z,99894.79
2023-04-08T07:38:21.330Z,99897.67
2023-04-08T07:40:49.280Z,99894.41
2023-04-08T07:43:18.082Z,99897.17
2023-04-08T07:45:49.252Z,99895.34
2023-04-08T07:48:17.179Z,99892.05
2023-04-08T07:51:08.111Z,99894.68
2023-04-08T07:53:36.926Z,99893.83
2023-04-08T07:56:11.253Z,99895.00
2023-04-08T07:58:40.607Z,99888.45
2023-04-08T08:01:20.291Z,99890.38
2023-04-08T08:03:51.660Z,99884.71
2023-04-08T08:06:20.842Z,99883.77
2023-04-08T08:08:50.072Z,99886.83
2023-04-08T08:11:18.698Z,99884.34
2023-04-08T08:13:54.013Z,99886.54
2023-04-08T08:16:29.006Z,99884.45
2023-04-08T08:18:57.937Z,99884.37
2023-04-08T08:21:33.870Z,99882.70
2023-04-08T08:24:02.202Z,99884.17
2023-04-08T08:26:30.853Z,99886.45
2023-04-08T08:29:01.969Z,99888.56
2023-04-08T08:31:31.100Z,99886.13
2023-04-08T08:33:59.407Z,99886.64
2023-04-08T08:36:28.807Z,99890.95
2023-04-08T08:38:56.948Z,99883.11
2023-04-08T08:41:25.383Z,99885.25
2023-04-08T08:43:53.483Z,99883.40
2023-04-08T08:46:21.625Z,99883.01
2023-04-08T08:48:49.748Z,99883.29
2023-04-08T08:51:17.733Z,99884.04
2023-04-08T08:53:46.878Z,99882.30
2023-04-08T08:56:18.485Z,99879.21
2023-04-08T08:58:47.931Z,99880.02
2023-04-08T09:01:37.550Z,99876.86
2023-04-08T09:04:20.249Z,99877.61
2023-04-08T09:06:51.055Z,99879.58
2023-04-08T09:09:19.304Z,99880.33
2023-04-08T09:11:47.974Z,99876.50
2023-04-08T09:14:19.147Z,99878.35
2023-04-08T09:16:47.591Z,99880.77
2023-04-08T09:19:16.336Z,99876.88
2023-04-08T09:21:48.217Z,99875.26
2023-04-08T09:24:29.999Z,99875.54
2023-04-08T09:26:58.471Z,99875.66
2023-04-08T09:29:31.239Z,99874.91
2023-04-08T09:32:01.912Z,99874.66
2023-04-08T09:34:34.619Z,99878.97
2023-04-08T09:37:02.850Z,99880.30
2023-04-08T09:39:32.363Z,99875.19
2023-04-08T09:42:01.420Z,99877.19
2023-04-08T09:44:31.293Z,99880.55
2023-04-08T09:47:12.857Z,99878.23
2023-04-08T09:49:46.945Z,99879.86
2023-04-08T09:53:50.722Z,99876.51
2023-04-08T09:56:19.371Z,99876.23
2023-04-08T09:59:03.047Z,99878.14
2023-04-08T10:01:39.669Z,99877.46
2023-04-08T10:04:14.896Z,99879.86
2023-04-08T10:06:46.197Z,99878.51
2023-04-08T10:09:14.828Z,99882.16
2023-04-08T10:11:42.745Z,99880.20
2023-04-08T10:14:11.587Z,99882.64
2023-04-08T10:16:39.816Z,99884.45
2023-04-08T10:19:39.582Z,99882.85
2023-04-08T10:22:27.471Z,99886.22
2023-04-08T10:25:17.429Z,99886.27
2023-04-08T10:27:45.492Z,99890.95
2023-04-08T10:30:34.274Z,99887.40
2023-04-08T10:33:03.453Z,99882.17
2023-04-08T10:35:42.486Z,99883.42
2023-04-08T10:38:11.758Z,99884.27
2023-04-08T10:40:41.558Z,99885.56
2023-04-08T10:43:11.204Z,99884.73
2023-04-08T10:45:40.844Z,99884.98
2023-04-08T10:48:19.581Z,99887.08
2023-04-08T10:51:00.840Z,99884.29
2023-04-08T10:53:33.614Z,99882.80
2023-04-08T10:56:11.049Z,99878.77
2023-04-08T10:58:54.306Z,99879.06
2023-04-08T11:01:23.112Z,99880.75
2023-04-08T11:03:51.729Z,99872.73
2023-04-08T11:06:23.535Z,99867.28
2023-04-08T11:08:52.241Z,99866.15
2023-04-08T11:11:21.152Z,99863.20
2023-04-08T11:13:53.249Z,99859.80
2023-04-08T11:16:23.096Z,99861.08
2023-04-08T11:18:51.572Z,99852.77
2023-04-08T11:21:23.454Z,99849.30
2023-04-08T11:23:53.598Z,99856.99
2023-04-08T11:26:22.310Z,99859.02
2023-04-08T11:28:52.183Z,99859.21
2023-04-08T11:31:23.541Z,99849.95
2023-04-08T11:33:57.500Z,99850.25
2023-04-08T11:36:27.319Z,99842.19
2023-04-08T11:38:55.908Z,99845.35
2023-04-08T11:41:26.773Z,99848.06
2023-04-08T11:43:55.950Z,99844.28
2023-04-08T11:46:24.587Z,99847.39
2023-04-08T11:49:03.789Z,99845.80
2023-04-08T11:51:55.110Z,99838.53
2023-04-08T11:54:29.582Z,99838.06
2023-04-08T11:56:58.369Z,99836.77
2023-04-08T11:59:28.940Z,99833.08
2023-04-08T12:01:57.573Z,99830.89
2023-04-08T12:04:26.021Z,99831.23
2023-04-08T12:06:56.966Z,99825.61
2023-04-08T12:09:27.451Z,99829.36
2023-04-08T12:11:57.640Z,99822.45
2023-04-08T12:14:28.219Z,99816.27
2023-04-08T12:16:56.782Z,99814.73
2023-04-08T12:19:24.878Z,99805.62
2023-04-08T12:21:53.226Z,99807.36
2023-04-08T12:24:22.002Z,99803.98
2023-04-08T12:26:50.579Z,99807.72
2023-04-08T12:29:19.068Z,99802.33
2023-04-08T12:31:47.417Z,99803.10
2023-04-08T12:34:16.858Z,99791.27
2023-04-08T12:36:45.239Z,99789.14
2023-04-08T12:39:15.559Z,99787.40
2023-04-08T12:41:43.640Z,99786.84
2023-04-08T12:44:11.909Z,99780.02
2023-04-08T12:46:42.939Z,99779.21
2023-04-08T12:49:12.572Z,99782.40
2023-04-08T12:51:47.237Z,99785.31
2023-04-08T12:54:17.119Z,99784.75
2023-04-08T12:56:45.692Z,99783.73
2023-04-08T12:59:16.169Z,99780.24
2023-04-08T13:01:44.294Z,99780.00
2023-04-08T13:04:12.372Z,99781.42
2023-04-08T13:06:40.777Z,99779.11
2023-04-08T13:09:08.901Z,99774.02
2023-04-08T13:11:38.614Z,99775.23
2023-04-08T13:14:08.884Z,99773.73
2023-04-08T13:16:37.342Z,99774.48
2023-04-08T13:19:06.719Z,99769.84
2023-04-08T13:21:35.537Z,99770.36
2023-04-08T13:24:03.799Z,99780.10
2023-04-08T13:26:31.943Z,99794.80
2023-04-08T13:29:05.831Z,99817.73
2023-04-08T13:31:34.045Z,99809.26
2023-04-08T13:34:02.320Z,99802.05
2023-04-08T13:36:33.876Z,99802.55
2023-04-08T13:39:02.558Z,99805.36
2023-04-08T13:41:30.736Z,99821.90
2023-04-08T13:43:59.541Z,99832.73
2023-04-08T13:46:27.530Z,99835.31
2023-04-08T13:48:57.676Z,99844.04
2023-04-08T13:51:27.158Z,99848.67
2023-04-08T13:53:55.533Z,99855.23
2023-04-08T13:56:23.943Z,99857.75
2023-04-08T13:58:57.117Z,99860.17
2023-04-08T14:01:28.430Z,99864.84
2023-04-08T14:03:56.918Z,99861.02
2023-04-08T14:06:25.309Z,99866.47
2023-04-08T14:08:54.866Z,99867.70
2023-04-08T14:11:23.623Z,99862.96
2023-04-08T14:13:51.710Z,99860.83
2023-04-08T14:16:20.131Z,99855.02
2023-04-08T14:18:49.853Z,99853.73
2023-04-08T14:21:18.893Z,99847.48
2023-04-08T14:23:48.358Z,99838.30
2023-04-08T14:26:16.774Z,99827.98
2023-04-08T14:28:49.635Z,99821.15
2023-04-08T14:31:18.054Z,99820.63
2023-04-08T14:33:46.115Z,99817.06
2023-04-08T14:36:14.267Z,99811.58
2023-04-08T14:38:43.019Z,99810.11
2023-04-08T14:41:12.580Z,99809.79
2023-04-08T14:43:41.726Z,99802.88
2023-04-08T14:46:09.682Z,99798.36
2023-04-08T14:48:38.549Z,99801.36
2023-04-08T14:51:06.913Z,99804.92
2023-04-08T14:53:54.493Z,99805.09
2023-04-08T14:56:22.465Z,99806.86
2023-04-08T14:58:53.551Z,99812.08
2023-04-08T15:01:21.903Z,99806.40
2023-04-08T15:03:50.121Z,99808.54
2023-04-08T15:06:21.813Z,99808.81
2023-04-08T15:08:51.931Z,99811.58
2023-04-08T15:11:22.245Z,99813.63
2023-04-08T15:13:59.435Z,99817.75
2023-04-08T15:16:28.063Z,99821.47
2023-04-08T15:18:59.839Z,99817.81
2023-04-08T15:21:29.320Z,99823.80
2023-04-08T15:23:57.615Z,99821.55
2023-04-08T15:26:25.749Z,99820.50
2023-04-08T15:28:55.389Z,99823.83
2023-04-08T15:31:24.012Z,99824.00
2023-04-08T15:33:52.479Z,99831.40
2023-04-08T15:36:20.915Z,99831.81
2023-04-08T15:38:49.035Z,99838.48
2023-04-08T15:41:19.008Z,99844.34
2023-04-08T15:43:47.127Z,99848.17
2023-04-08T15:46:19.345Z,99845.13
2023-04-08T15:48:48.062Z,99850.33
2023-04-08T15:51:17.463Z,99851.31
2023-04-08T15:53:45.738Z,99849.84
2023-04-08T15:56:16.445Z,99847.96
2023-04-08T15:58:45.839Z,99851.06
2023-04-08T16:01:14.091Z,99860.14
2023-04-08T16:03:44.688Z,99865.66
2023-04-08T16:06:12.717Z,99868.26
2023-04-08T16:08:42.208Z,99872.09
2023-04-08T16:11:10.194Z,99878.52
2023-04-08T16:13:40.758Z,99882.39
2023-04-08T16:16:08.972Z,99887.26
2023-04-08T16:18:37.745Z,99893.48
2023-04-08T16:21:05.990Z,99895.15
2023-04-08T16:23:37.530Z,99892.67
2023-04-08T16:26:10.302Z,99897.68
2023-04-08T16:28:40.176Z,99894.23
2023-04-08T16:31:08.362Z,99893.29
2023-04-08T16:33:38.850Z,99887.86
2023-04-08T16:36:07.255Z,99892.34
2023-04-08T16:38:36.022Z,99896.67
2023-04-08T16:41:10.059Z,99900.00
2023-04-08T16:43:38.421Z,99898.81
2023-04-08T16:46:15.301Z,99903.73
2023-04-08T16:48:44.292Z,99903.37
2023-04-08T16:51:12.147Z,99912.91
2023-04-08T16:53:40.486Z,99910.28
2023-04-08T16:56:16.200Z,99907.77
2023-04-08T16:58:45.510Z,99910.64
2023-04-08T17:01:14.306Z,99913.80
2023-04-08T17:03:44.837Z,99917.02
2023-04-08T17:06:13.805Z,99917.05
2023-04-08T17:08:49.122Z,99914.40
2023-04-08T17:11:17.772Z,99914.23
2023-04-08T17:13:47.150Z,99916.17
2023-04-08T17:16:17.018Z,99916.19
2023-04-08T17:18:46.967Z,99915.18
2023-04-08T17:21:15.757Z,99920.17
2023-04-08T17:23:52.233Z,99925.54
2023-04-08T17:26:22.265Z,99926.02
2023-04-08T17:28:50.332Z,99925.19
2023-04-08T17:31:18.434Z,99931.05
2023-04-08T17:33:46.452Z,99934.42
2023-04-08T17:36:15.579Z,99935.33
2023-04-08T17:38:44.989Z,99937.13
2023-04-08T17:41:16.261Z,99936.57
2023-04-08T17:43:50.011Z,99939.64
2023-04-08T17:46:18.539Z,99942.34
2023-04-08T17:48:46.753Z,99945.92
2023-04-08T17:51:16.692Z,99950.93
2023-04-08T17:53:44.914Z,99952.82
2023-04-08T17:56:13.549Z,99959.64
2023-04-08T17:58:42.838Z,99957.05
2023-04-08T18:01:10.949Z,99962.73
2023-04-08T18:03:39.359Z,99959.98
2023-04-08T18:06:09.027Z,99962.96
2023-04-08T18:08:36.962Z,99960.80
2023-04-08T18:11:05.962Z,99967.97
2023-04-08T18:13:34.107Z,99972.64
2023-04-08T18:16:05.526Z,99975.77
2023-04-08T18:18:36.670Z,99975.33
2023-04-08T18:21:05.755Z,99976.52
2023-04-08T18:23:34.263Z,99974.88
2023-04-08T18:26:04.194Z,99975.65
2023-04-08T18:28:32.318Z,99976.09
2023-04-08T18:31:01.131Z,99977.84
2023-04-08T18:33:29.577Z,99978.91
2023-04-08T18:35:59.571Z,99978.92
2023-04-08T18:38:28.102Z,99981.39
2023-04-08T18:40:57.062Z,99983.44
2023-04-08T18:43:25.363Z,99984.00
2023-04-08T18:45:57.908Z,99984.17
2023-04-08T18:48:25.821Z,99985.00
2023-04-08T18:50:54.047Z,99986.55
2023-04-08T18:53:23.220Z,99985.64
2023-04-08T18:55:51.950Z,99988.81
2023-04-08T18:58:22.827Z,99983.94
2023-04-08T19:00:51.104Z,99985.58
2023-04-08T19:03:20.033Z,99985.87
2023-04-08T19:05:49.291Z,99988.50
2023-04-08T19:08:17.403Z,99987.18
2023-04-08T19:10:46.626Z,99991.04
2023-04-08T19:13:15.110Z,99990.17
2023-04-08T19:15:43.207Z,99986.83
2023-04-08T19:18:11.198Z,99987.16
2023-04-08T19:20:39.837Z,99985.20
2023-04-08T19:23:15.940Z,99981.30
2023-04-08T19:25:44.120Z,99976.60
2023-04-08T19:28:14.330Z,99976.23
2023-04-08T19:30:44.277Z,99976.70
2023-04-08T19:33:12.517Z,99974.86
2023-04-08T19:35:41.135Z,99974.34
2023-04-08T19:38:09.900Z,99974.30
2023-04-08T19:40:37.840Z,99968.77
2023-04-08T19:43:07.726Z,99965.05
2023-04-08T19:45:36.967Z,99969.59
2023-04-08T19:48:05.055Z,99973.89
2023-04-08T19:50:39.469Z,99972.73
2023-04-08T19:53:07.344Z,99968.99
2023-04-08T19:55:37.762Z,99969.50
2023-04-08T19:58:06.380Z,99960.23
2023-04-08T20:00:40.257Z,99960.77
2023-04-08T20:03:09.986Z,99961.14
2023-04-08T20:05:38.567Z,99961.63
2023-04-08T20:08:06.608Z,99961.91
2023-04-08T20:10:35.759Z,99959.61
2023-04-08T20:13:03.998Z,99960.29
2023-04-08T20:15:32.359Z,99956.44
2023-04-08T20:18:00.469Z,99956.57
2023-04-08T20:20:32.938Z,99955.25
2023-04-08T20:23:01.108Z,99954.55
2023-04-08T20:25:29.181Z,99955.13
2023-04-08T20:28:00.594Z,99952.00
2023-04-08T20:30:29.465Z,99954.23
2023-04-08T20:32:57.678Z,99952.16
2023-04-08T20:35:26.250Z,99959.29
2023-04-08T20:37:54.387Z,99958.95
2023-04-08T20:40:23.131Z,99951.98
2023-04-08T20:42:51.059Z,99951.70
2023-04-08T20:45:19.280Z,99951.81
2023-04-08T20:47:50.762Z,99947.50
2023-04-08T20:50:19.837Z,99945.55
2023-04-08T20:52:51.771Z,99949.79
2023-04-08T20:55:19.882Z,99948.77
2023-04-08T20:57:48.075Z,99948.30
2023-04-08T21:00:17.395Z,99949.96
2023-04-08T21:02:47.827Z,99943.98
2023-04-08T21:05:16.190Z,99943.10
2023-04-08T21:07:47.058Z,99944.09
2023-04-08T21:10:17.455Z,99944.42
2023-04-08T21:12:47.434Z,99942.71
2023-04-08T21:15:15.634Z,99943.86
2023-04-08T21:17:44.583Z,99941.38
2023-04-08T21:20:12.704Z,99939.14
2023-04-08T21:22:41.199Z,99941.46
2023-04-08T21:25:09.823Z,99942.92
2023-04-08T21:27:40.739Z,99942.96
2023-04-08T21:30:10.329Z,99951.02
2023-04-08T21:32:38.849Z,99949.02
2023-04-08T21:35:07.638Z,99948.43
2023-04-08T21:37:36.850Z,99953.11
2023-04-08T21:40:06.571Z,99960.20
2023-04-08T21:42:34.509Z,99958.91
2023-04-08T21:45:02.496Z,99957.34
2023-04-08T21:47:32.213Z,99959.03
2023-04-08T21:50:00.256Z,99964.43
2023-04-08T21:52:29.093Z,99965.10
2023-04-08T21:54:57.260Z,99962.04
2023-04-08T21:57:25.742Z,99961.66
2023-04-08T21:59:53.705Z,99959.15
2023-04-08T22:02:22.117Z,99954.90
2023-04-08T22:04:50.158Z,99951.54
2023-04-08T22:07:18.321Z,99949.33
2023-04-08T22:10:37.559Z,99948.92
2023-04-08T22:13:05.470Z,99954.85
2023-04-08T22:15:39.767Z,99959.09
2023-04-08T22:18:08.477Z,99963.70
2023-04-08T22:20:37.700Z,99960.66
2023-04-08T22:23:05.665Z,99963.48
2023-04-08T22:25:34.953Z,99964.20
2023-04-08T22:28:03.121Z,99964.90
2023-04-08T22:30:31.333Z,99966.45
2023-04-08T22:33:02.349Z,99966.30
2023-04-08T22:35:30.694Z,99963.92
2023-04-08T22:38:00.989Z,99962.55
2023-04-08T22:40:29.114Z,99963.46
2023-04-08T22:42:57.334Z,99960.03
2023-04-08T22:45:25.417Z,99956.16
2023-04-08T22:47:54.460Z,99952.52
2023-04-08T22:50:42.376Z,99951.55
2023-04-08T22:53:10.558Z,99951.22
2023-04-08T22:55:38.642Z,99948.26
2023-04-08T22:58:09.838Z,99944.33
2023-04-08T23:00:38.094Z,99951.64
2023-04-08T23:03:07.060Z,99945.56
2023-04-08T23:05:35.225Z,99946.08
2023-04-08T23:08:03.868Z,99953.34
2023-04-08T23:10:32.629Z,99952.73
2023-04-08T23:13:01.019Z,99946.77
2023-04-08T23:15:29.326Z,99949.27
2023-04-08T23:17:57.890Z,99945.19
2023-04-08T23:20:26.040Z,99941.06
2023-04-08T23:22:55.722Z,99941.99
2023-04-08T23:25:24.090Z,99946.38
2023-04-08T23:27:55.765Z,99944.00
2023-04-08T23:30:24.134Z,99941.41
2023-04-08T23:32:54.688Z,99945.23
2023-04-08T23:35:22.750Z,99943.30
2023-04-08T23:37:51.147Z,99942.22
2023-04-08T23:40:19.479Z,99942.00
2023-04-08T23:42:47.407Z,99945.70
2023-04-08T23:45:16.189Z,99944.24
2023-04-08T23:47:44.235Z,99942.14
2023-04-08T23:50:14.386Z,99944.71
2023-04-08T23:52:43.600Z,99944.59
2023-04-08T23:55:19.196Z,99938.14
2023-04-08T23:57:50.928Z,99936.98
